createdAt,value
2022-12-24T06:02:04.157Z,99357.91
2022-12-24T06:04:31.119Z,99356.41
2022-12-24T06:06:58.893Z,99359.19
2022-12-24T06:09:27.181Z,99359.03
2022-12-24T06:11:57.311Z,99370.47
2022-12-24T06:14:23.957Z,99378.66
2022-12-24T06:16:55.059Z,99375.22
2022-12-24T06:19:21.963Z,99377.88
2022-12-24T06:21:49.050Z,99375.09
2022-12-24T06:24:16.643Z,99377.56
2022-12-24T06:26:43.366Z,99369.66
2022-12-24T06:29:12.016Z,99370.47
2022-12-24T06:31:39.044Z,99367.81
2022-12-24T06:34:06.435Z,99380.97
2022-12-24T06:36:33.118Z,99380.06
2022-12-24T06:39:00.685Z,99381.88
2022-12-24T06:41:27.371Z,99385.28
2022-12-24T06:43:54.710Z,99395.91
2022-12-24T06:46:22.581Z,99383.44
2022-12-24T06:48:49.473Z,99381.75
2022-12-24T06:51:19.620Z,99384.25
2022-12-24T06:53:46.769Z,99393.94
2022-12-24T06:56:14.750Z,99392.09
2022-12-24T06:58:44.513Z,99388.50
2022-12-24T07:01:14.200Z,99390.38
2022-12-24T07:03:41.507Z,99393.69
2022-12-24T07:06:45.586Z,99402.31
2022-12-24T07:12:15.468Z,99407.63
2022-12-24T07:14:42.052Z,99412.00
2022-12-24T07:17:09.912Z,99412.81
2022-12-24T07:19:36.576Z,99420.75
2022-12-24T07:22:03.835Z,99417.16
2022-12-24T07:24:30.374Z,99423.28
2022-12-24T07:26:57.255Z,99426.72
2022-12-24T07:29:24.449Z,99428.44
2022-12-24T07:31:51.063Z,99428.31
2022-12-24T07:34:18.379Z,99424.75
2022-12-24T07:36:44.930Z,99429.97
2022-12-24T07:39:12.117Z,99440.66
2022-12-24T07:41:41.660Z,99438.91
2022-12-24T07:44:13.248Z,99448.63
2022-12-24T07:46:40.670Z,99448.59
2022-12-24T07:49:08.220Z,99446.78
2022-12-24T07:51:34.865Z,99445.78
2022-12-24T07:54:02.273Z,99451.22
2022-12-24T07:56:28.809Z,99448.59
2022-12-24T07:58:56.051Z,99455.63
2022-12-24T08:01:22.933Z,99468.59
2022-12-24T08:03:54.817Z,99472.94
2022-12-24T08:06:22.108Z,99467.78
2022-12-24T08:08:49.641Z,99473.88
2022-12-24T08:11:16.348Z,99481.78
2022-12-24T08:13:43.542Z,99480.78
2022-12-24T08:16:10.213Z,99473.63
2022-12-24T08:18:37.432Z,99475.34
2022-12-24T08:21:07.946Z,99477.09
2022-12-24T08:23:36.121Z,99480.66
2022-12-24T08:26:02.818Z,99476.28
2022-12-24T08:28:30.154Z,99480.66
2022-12-24T08:30:56.871Z,99487.56
2022-12-24T08:33:25.544Z,99498.06
2022-12-24T08:35:54.694Z,99502.41
2022-12-24T08:38:22.711Z,99517.44
2022-12-24T08:40:50.117Z,99505.81
2022-12-24T08:43:18.178Z,99512.13
2022-12-24T08:45:46.419Z,99512.72
2022-12-24T08:48:13.793Z,99518.91
2022-12-24T08:50:41.610Z,99517.03
2022-12-24T08:53:10.389Z,99506.38
2022-12-24T08:55:37.398Z,99508.06
2022-12-24T08:58:04.904Z,99517.78
2022-12-24T09:00:31.687Z,99522.09
2022-12-24T09:02:59.155Z,99518.47
2022-12-24T09:05:26.039Z,99525.53
2022-12-24T09:07:53.616Z,99536.06
2022-12-24T09:10:20.814Z,99533.41
2022-12-24T09:12:48.188Z,99546.53
2022-12-24T09:15:15.228Z,99548.06
2022-12-24T09:17:42.736Z,99547.00
2022-12-24T09:20:10.191Z,99556.53
2022-12-24T09:22:39.895Z,99566.88
2022-12-24T09:25:07.414Z,99568.47
2022-12-24T09:27:34.880Z,99571.00
2022-12-24T09:30:01.459Z,99573.78
2022-12-24T09:32:28.656Z,99575.66
2022-12-24T09:34:55.272Z,99584.53
2022-12-24T09:37:22.485Z,99589.72
2022-12-24T09:39:49.080Z,99602.22
2022-12-24T09:42:53.018Z,99596.75
2022-12-24T09:45:35.936Z,99616.16
2022-12-24T09:48:15.724Z,99618.06
2022-12-24T09:50:59.101Z,99617.03
2022-12-24T09:53:38.022Z,99612.56
2022-12-24T09:56:12.896Z,99627.66
2022-12-24T09:58:46.044Z,99616.03
2022-12-24T10:01:15.721Z,99628.25
2022-12-24T10:03:43.748Z,99630.84
2022-12-24T10:06:16.100Z,99628.25
2022-12-24T10:09:05.154Z,99629.13
2022-12-24T10:11:44.083Z,99631.69
2022-12-24T10:14:28.983Z,99636.09
2022-12-24T10:17:17.726Z,99632.50
2022-12-24T10:19:56.567Z,99633.50
2022-12-24T10:22:35.733Z,99639.75
2022-12-24T10:25:23.389Z,99649.56
2022-12-24T10:27:54.753Z,99648.78
2022-12-24T10:30:23.167Z,99647.78
2022-12-24T10:32:52.867Z,99656.38
2022-12-24T10:35:21.656Z,99660.59
2022-12-24T10:37:51.470Z,99663.34
2022-12-24T10:40:24.204Z,99652.72
2022-12-24T10:42:51.994Z,99655.38
2022-12-24T10:45:21.614Z,99655.09
2022-12-24T10:47:54.562Z,99664.78
2022-12-24T10:50:40.779Z,99661.09
2022-12-24T10:53:21.745Z,99666.53
2022-12-24T10:55:49.190Z,99666.69
2022-12-24T10:58:19.840Z,99663.75
2022-12-24T11:00:52.051Z,99665.66
2022-12-24T11:03:19.269Z,99660.34
2022-12-24T11:05:45.916Z,99664.78
2022-12-24T11:08:13.089Z,99661.94
2022-12-24T11:10:53.863Z,99670.78
2022-12-24T11:13:38.020Z,99664.56
2022-12-24T11:16:35.605Z,99678.50
2022-12-24T11:19:15.713Z,99687.16
2022-12-24T11:21:43.447Z,99673.06
2022-12-24T11:24:12.991Z,99672.06
2022-12-24T11:26:42.583Z,99677.31
2022-12-24T11:29:12.440Z,99667.63
2022-12-24T11:31:39.668Z,99671.00
2022-12-24T11:34:30.904Z,99667.63
2022-12-24T11:37:17.368Z,99661.16
2022-12-24T11:39:49.459Z,99665.47
2022-12-24T11:42:38.396Z,99663.75
2022-12-24T11:45:17.753Z,99668.94
2022-12-24T11:47:44.807Z,99674.19
2022-12-24T11:50:35.530Z,99674.13
2022-12-24T11:53:06.029Z,99668.00
2022-12-24T11:56:34.429Z,99665.22
2022-12-24T11:59:26.409Z,99672.13
2022-12-24T12:02:18.119Z,99673.84
2022-12-24T12:04:49.961Z,99678.16
2022-12-24T12:07:25.810Z,99681.72
2022-12-24T12:10:02.919Z,99679.97
2022-12-24T12:12:35.393Z,99679.06
2022-12-24T12:15:19.421Z,99677.44
2022-12-24T12:17:55.091Z,99675.72
2022-12-24T12:20:30.468Z,99679.16
2022-12-24T12:23:26.036Z,99686.22
2022-12-24T12:26:00.178Z,99689.69
2022-12-24T12:28:35.624Z,99687.81
2022-12-24T12:31:15.810Z,99686.09
2022-12-24T12:33:49.830Z,99692.13
2022-12-24T12:36:20.918Z,99701.78
2022-12-24T12:38:50.213Z,99700.06
2022-12-24T12:41:36.474Z,99699.19
2022-12-24T12:44:16.410Z,99704.44
2022-12-24T12:47:08.809Z,99699.06
2022-12-24T12:49:56.504Z,99704.44
2022-12-24T12:53:00.806Z,99703.50
2022-12-24T12:55:40.666Z,99706.94
2022-12-24T12:58:19.589Z,99705.75
2022-12-24T13:00:50.030Z,99717.34
2022-12-24T13:03:19.970Z,99722.31
2022-12-24T13:05:52.558Z,99720.81
2022-12-24T13:08:57.415Z,99723.56
2022-12-24T13:11:33.110Z,99724.47
2022-12-24T13:14:38.369Z,99726.97
2022-12-24T13:17:21.754Z,99729.69
2022-12-24T13:19:59.325Z,99737.16
2022-12-24T13:22:25.905Z,99737.28
2022-12-24T13:24:55.676Z,99734.50
2022-12-24T13:27:28.452Z,99738.16
2022-12-24T13:30:09.754Z,99739.75
2022-12-24T13:32:47.106Z,99738.88
2022-12-24T13:35:37.924Z,99737.16
2022-12-24T13:38:26.723Z,99741.53
2022-12-24T13:40:55.136Z,99739.81
2022-12-24T13:43:22.246Z,99749.63
2022-12-24T13:45:52.117Z,99747.78
2022-12-24T13:48:25.342Z,99760.13
2022-12-24T13:50:55.503Z,99761.09
2022-12-24T13:53:29.428Z,99763.06
2022-12-24T13:56:03.255Z,99772.00
2022-12-24T13:58:30.793Z,99780.88
2022-12-24T14:01:06.560Z,99777.50
2022-12-24T14:03:45.670Z,99789.94
2022-12-24T14:06:27.721Z,99790.63
2022-12-24T14:09:19.192Z,99796.13
2022-12-24T14:12:01.002Z,99793.50
2022-12-24T14:14:41.035Z,99792.72
2022-12-24T14:17:19.520Z,99790.84
2022-12-24T14:19:59.328Z,99798.16
2022-12-24T14:22:28.536Z,99795.50
2022-12-24T14:24:59.920Z,99792.84
2022-12-24T14:27:41.529Z,99797.28
2022-12-24T14:30:19.786Z,99807.34
2022-12-24T14:32:48.070Z,99815.47
2022-12-24T14:35:21.880Z,99816.72
2022-12-24T14:37:51.934Z,99834.53
2022-12-24T14:40:25.856Z,99839.97
2022-12-24T14:43:06.425Z,99824.81
2022-12-24T14:45:46.022Z,99822.16
2022-12-24T14:48:41.728Z,99840.03
2022-12-24T14:51:32.735Z,99840.03
2022-12-24T14:54:06.067Z,99849.78
2022-12-24T14:56:32.649Z,99848.16
2022-12-24T14:59:04.951Z,99853.44
2022-12-24T15:01:34.388Z,99854.53
2022-12-24T15:04:01.662Z,99864.41
2022-12-24T15:06:31.689Z,99868.88
2022-12-24T15:08:59.242Z,99865.41
2022-12-24T15:11:25.974Z,99868.19
2022-12-24T15:13:57.061Z,99871.94
2022-12-24T15:16:37.085Z,99876.81
2022-12-24T15:19:24.153Z,99880.31
2022-12-24T15:21:50.964Z,99879.63
2022-12-24T15:24:32.639Z,99885.75
2022-12-24T15:27:02.813Z,99887.84
2022-12-24T15:29:33.244Z,99882.59
2022-12-24T15:32:02.248Z,99889.94
2022-12-24T15:34:37.349Z,99887.41
2022-12-24T15:37:31.568Z,99896.28
2022-12-24T15:40:33.504Z,99897.25
2022-12-24T15:43:01.049Z,99908.22
2022-12-24T15:45:31.795Z,99912.00
2022-12-24T15:48:06.284Z,99907.66
2022-12-24T15:50:36.288Z,99912.28
2022-12-24T15:53:19.932Z,99920.50
2022-12-24T15:56:07.259Z,99923.38
2022-12-24T15:58:40.237Z,99928.78
2022-12-24T16:01:28.905Z,99936.03
2022-12-24T16:03:58.505Z,99922.03
2022-12-24T16:06:25.679Z,99932.84
2022-12-24T16:08:52.964Z,99934.78
2022-12-24T16:11:24.255Z,99941.94
2022-12-24T16:13:51.229Z,99946.50
2022-12-24T16:16:21.532Z,99945.69
2022-12-24T16:18:54.810Z,99944.16
2022-12-24T16:21:28.751Z,99947.00
2022-12-24T16:23:58.837Z,99952.44
2022-12-24T16:26:25.391Z,99958.69
2022-12-24T16:28:52.628Z,99961.53
2022-12-24T16:31:29.464Z,99960.84
2022-12-24T16:33:59.291Z,99959.25
2022-12-24T16:36:26.178Z,99965.56
2022-12-24T16:39:11.693Z,99969.22
2022-12-24T16:41:58.243Z,99968.44
2022-12-24T16:44:25.487Z,99975.66
2022-12-24T16:46:53.643Z,99976.69
2022-12-24T16:49:23.191Z,99982.09
2022-12-24T16:51:49.781Z,99981.34
2022-12-24T16:54:16.976Z,99982.38
2022-12-24T16:56:44.705Z,99983.34
2022-12-24T16:59:17.780Z,99990.53
2022-12-24T17:01:44.738Z,100000.41
2022-12-24T17:04:12.303Z,100001.38
2022-12-24T17:06:38.932Z,99997.09
2022-12-24T17:09:06.639Z,99998.09
2022-12-24T17:11:33.204Z,99997.34
2022-12-24T17:14:07.210Z,99994.78
2022-12-24T17:16:37.302Z,100003.72
2022-12-24T17:19:05.226Z,99996.81
2022-12-24T17:21:32.406Z,99993.38
2022-12-24T17:23:59.619Z,99998.78
2022-12-24T17:26:26.524Z,100007.69
2022-12-24T17:28:55.532Z,100014.88
2022-12-24T17:31:23.206Z,100009.66
2022-12-24T17:33:52.010Z,100013.28
2022-12-24T17:36:18.954Z,100011.66
2022-12-24T17:38:46.306Z,100022.31
2022-12-24T17:41:15.960Z,100026.84
2022-12-24T17:43:43.675Z,100032.19
2022-12-24T17:46:28.466Z,100026.97
2022-12-24T17:48:56.126Z,100024.41
2022-12-24T17:51:23.650Z,100026.22
2022-12-24T17:53:51.399Z,100017.47
2022-12-24T17:56:18.285Z,100029.88
2022-12-24T17:58:46.825Z,100029.97
2022-12-24T18:01:19.264Z,100024.72
2022-12-24T18:03:50.033Z,100030.94
2022-12-24T18:06:17.354Z,100037.19
2022-12-24T18:08:46.885Z,100035.50
2022-12-24T18:11:13.413Z,100037.34
2022-12-24T18:13:40.871Z,100037.41
2022-12-24T18:16:19.136Z,100037.47
2022-12-24T18:18:46.911Z,100041.97
2022-12-24T18:21:14.702Z,100032.41
2022-12-24T18:23:43.430Z,100044.03
2022-12-24T18:26:10.874Z,100050.28
2022-12-24T18:28:38.504Z,100035.44
2022-12-24T18:31:08.646Z,100050.44
2022-12-24T18:33:36.560Z,100052.34
2022-12-24T18:36:03.689Z,100055.94
2022-12-24T18:38:31.662Z,100058.66
2022-12-24T18:41:09.540Z,100050.78
2022-12-24T18:43:37.223Z,100053.47
2022-12-24T18:46:13.033Z,100048.25
2022-12-24T18:48:41.225Z,100045.69
2022-12-24T18:51:09.196Z,100040.47
2022-12-24T18:53:38.832Z,100033.47
2022-12-24T18:56:07.084Z,100031.75
2022-12-24T18:58:34.421Z,100030.06
2022-12-24T19:01:01.082Z,100037.13
2022-12-24T19:03:28.282Z,100038.00
2022-12-24T19:06:01.901Z,100040.66
2022-12-24T19:08:56.354Z,100047.75
2022-12-24T19:11:16.627Z,100048.72
2022-12-24T19:13:50.810Z,100052.28
2022-12-24T19:16:18.272Z,100047.06
2022-12-24T19:18:45.566Z,100050.63
2022-12-24T19:21:13.641Z,100062.19
2022-12-24T19:23:41.016Z,100058.78
2022-12-24T19:26:09.179Z,100065.00
2022-12-24T19:28:36.380Z,100069.41
2022-12-24T19:31:08.162Z,100074.69
2022-12-24T19:33:42.878Z,100074.75
2022-12-24T19:36:21.303Z,100078.34
2022-12-24T19:38:48.564Z,100076.75
2022-12-24T19:41:27.538Z,100082.03
2022-12-24T19:43:56.916Z,100082.16
2022-12-24T19:46:30.420Z,100075.22
2022-12-24T19:49:00.234Z,100079.66
2022-12-24T19:51:28.682Z,100084.97
2022-12-24T19:53:57.246Z,100088.53
2022-12-24T19:56:25.565Z,100093.00
2022-12-24T19:58:52.994Z,100083.34
2022-12-24T20:01:24.667Z,100092.19
2022-12-24T20:03:53.412Z,100086.09
2022-12-24T20:06:22.918Z,100095.81
2022-12-24T20:08:50.019Z,100088.88
2022-12-24T20:11:19.207Z,100081.94
2022-12-24T20:13:46.558Z,100090.78
2022-12-24T20:16:19.135Z,100082.97
2022-12-24T20:19:01.544Z,100081.25
2022-12-24T20:21:28.117Z,100087.50
2022-12-24T20:23:55.005Z,100088.41
2022-12-24T20:26:24.124Z,100083.19
2022-12-24T20:28:51.471Z,100079.81
2022-12-24T20:31:20.816Z,100082.44
2022-12-24T20:33:48.244Z,100079.81
2022-12-24T20:36:17.850Z,100071.13
2022-12-24T20:38:45.613Z,100074.69
2022-12-24T20:41:14.437Z,100077.38
2022-12-24T20:43:47.964Z,100075.63
2022-12-24T20:46:16.483Z,100075.66
2022-12-24T20:48:43.795Z,100081.00
2022-12-24T20:51:19.199Z,100086.31
2022-12-24T20:53:50.796Z,100097.78
2022-12-24T20:56:18.341Z,100096.09
2022-12-24T20:58:46.195Z,100097.88
2022-12-24T21:01:17.656Z,100103.19
2022-12-24T21:03:45.494Z,100104.09
2022-12-24T21:06:12.632Z,100113.78
2022-12-24T21:08:39.547Z,100123.50
2022-12-24T21:11:25.639Z,100113.88
2022-12-24T21:13:52.575Z,100127.94
2022-12-24T21:16:19.206Z,100127.97
2022-12-24T21:18:46.501Z,100129.72
2022-12-24T21:21:13.086Z,100108.66
2022-12-24T21:23:39.961Z,100113.09
2022-12-24T21:26:07.233Z,100120.09
2022-12-24T21:28:33.987Z,100121.88
